createdAt,value
2023-01-04T00:01:11.001Z,10.73
2023-01-04T00:03:37.763Z,14.50
2023-01-04T00:06:05.933Z,14.47
2023-01-04T00:08:33.597Z,19.63
2023-01-04T00:11:03.868Z,12.13
2023-01-04T00:13:31.550Z,26.67
2023-01-04T00:16:05.346Z,13.67
2023-01-04T00:18:35.199Z,16.23
2023-01-04T00:21:16.350Z,19.90
2023-01-04T00:23:44.631Z,17.13
2023-01-04T00:26:17.486Z,19.17
2023-01-04T00:28:48.366Z,17.27
2023-01-04T00:31:20.624Z,14.73
2023-01-04T00:33:47.142Z,17.27
2023-01-04T00:36:14.630Z,16.43
2023-01-04T00:38:42.340Z,15.70
2023-01-04T00:41:18.876Z,16.03
2023-01-04T00:43:56.826Z,17.27
2023-01-04T00:46:23.378Z,14.70
2023-01-04T00:48:50.898Z,15.70
2023-01-04T00:51:20.763Z,14.50
2023-01-04T00:53:47.232Z,15.33
2023-01-04T00:56:13.808Z,14.47
2023-01-04T00:58:40.335Z,12.70
2023-01-04T01:01:07.644Z,10.83
2023-01-04T01:03:38.431Z,13.53
2023-01-04T01:06:07.903Z,11.70
2023-01-04T01:08:35.649Z,13.07
2023-01-04T01:11:08.232Z,12.87
2023-01-04T01:13:36.484Z,14.07
2023-01-04T01:16:11.703Z,13.03
2023-01-04T01:18:39.913Z,15.63
2023-01-04T01:21:08.030Z,16.10
2023-01-04T01:23:34.849Z,14.33
2023-01-04T01:26:03.377Z,17.07
2023-01-04T01:28:30.687Z,14.07
2023-01-04T01:31:02.383Z,12.97
2023-01-04T01:33:33.609Z,16.73
2023-01-04T01:36:02.066Z,17.33
2023-01-04T01:38:28.884Z,16.00
2023-01-04T01:40:55.427Z,13.63
2023-01-04T01:43:43.096Z,18.97
2023-01-04T01:46:10.690Z,12.60
2023-01-04T01:48:37.360Z,16.60
2023-01-04T01:51:04.653Z,13.63
2023-01-04T01:53:35.738Z,12.27
2023-01-04T01:56:06.067Z,9.20
2023-01-04T01:58:39.524Z,10.10
2023-01-04T02:01:07.677Z,12.33
2023-01-04T02:03:41.279Z,5.07
2023-01-04T02:06:11.752Z,6.20
2023-01-04T02:08:41.108Z,6.80
2023-01-04T02:11:08.493Z,5.93
2023-01-04T02:13:56.616Z,10.13
2023-01-04T02:16:34.838Z,8.47
2023-01-04T02:19:26.817Z,8.17
2023-01-04T02:22:38.961Z,9.30
2023-01-04T02:25:33.324Z,7.67
2023-01-04T02:28:05.289Z,9.57
2023-01-04T02:30:44.779Z,6.13
2023-01-04T02:33:14.587Z,11.07
2023-01-04T02:35:43.679Z,7.77
2023-01-04T02:38:28.950Z,6.23
2023-01-04T02:41:34.099Z,5.70
2023-01-04T02:44:50.218Z,10.03
2023-01-04T02:47:47.234Z,13.53
2023-01-04T02:50:32.300Z,14.63
2023-01-04T02:53:18.705Z,9.90
2023-01-04T02:56:12.732Z,7.83
2023-01-04T02:59:05.734Z,8.13
2023-01-04T03:02:06.352Z,6.70
2023-01-04T03:04:59.496Z,7.30
2023-01-04T03:08:15.903Z,11.23
2023-01-04T03:11:29.014Z,10.03
2023-01-04T03:14:32.320Z,13.80
2023-01-04T03:17:04.611Z,11.17
2023-01-04T03:19:52.014Z,6.23
2023-01-04T03:22:42.272Z,7.10
2023-01-04T03:25:29.797Z,6.27
2023-01-04T03:28:18.361Z,6.67
2023-01-04T03:31:17.013Z,7.80
2023-01-04T03:34:02.619Z,4.70
2023-01-04T03:36:38.768Z,5.33
2023-01-04T03:39:34.838Z,6.73
2023-01-04T03:42:32.848Z,6.53
2023-01-04T03:45:38.597Z,5.47
2023-01-04T03:48:33.231Z,5.90
2023-01-04T03:51:10.291Z,5.23
2023-01-04T03:53:43.349Z,4.53
2023-01-04T03:56:11.321Z,5.43
2023-01-04T03:58:38.381Z,8.43
2023-01-04T04:01:06.224Z,7.33
2023-01-04T04:03:51.329Z,8.90
2023-01-04T04:06:36.337Z,7.73
2023-01-04T04:09:03.556Z,8.53
2023-01-04T04:11:32.788Z,7.40
2023-01-04T04:14:03.045Z,5.50
2023-01-04T04:16:29.789Z,5.70
2023-01-04T04:18:56.488Z,6.47
2023-01-04T04:21:23.261Z,7.47
2023-01-04T04:23:49.780Z,11.23
2023-01-04T04:26:16.904Z,8.63
2023-01-04T04:28:43.718Z,6.70
2023-01-04T04:31:10.298Z,7.67
2023-01-04T04:33:36.884Z,8.17
2023-01-04T04:36:04.247Z,5.60
2023-01-04T04:38:30.766Z,7.13
2023-01-04T04:41:15.862Z,8.53
2023-01-04T04:43:42.492Z,6.03
2023-01-04T04:46:09.073Z,6.03
2023-01-04T04:48:35.628Z,12.63
2023-01-04T04:51:02.118Z,9.27
2023-01-04T04:53:28.943Z,7.67
2023-01-04T04:55:55.468Z,5.63
2023-01-04T04:58:22.213Z,4.97
2023-01-04T05:00:48.753Z,5.90
2023-01-04T05:03:15.765Z,6.33
2023-01-04T05:05:42.448Z,6.37
2023-01-04T05:08:08.975Z,9.10
2023-01-04T05:10:35.433Z,4.57
2023-01-04T05:13:01.984Z,7.10
2023-01-04T05:15:37.063Z,5.57
2023-01-04T05:18:05.489Z,4.77
2023-01-04T05:20:32.360Z,5.23
2023-01-04T05:22:58.905Z,6.43
2023-01-04T05:25:25.798Z,6.23
2023-01-04T05:27:52.311Z,5.80
2023-01-04T05:30:38.440Z,10.00
2023-01-04T05:33:09.419Z,4.10
2023-01-04T05:35:39.027Z,3.90
2023-01-04T05:38:08.901Z,5.87
2023-01-04T05:40:37.517Z,6.53
2023-01-04T05:43:04.040Z,6.40
2023-01-04T05:45:30.529Z,3.73
2023-01-04T05:47:57.078Z,5.30
2023-01-04T05:50:24.455Z,4.63
2023-01-04T05:52:51.798Z,4.07
2023-01-04T05:55:18.971Z,3.47
2023-01-04T05:57:45.583Z,4.13
2023-01-04T06:00:13.473Z,4.10
2023-01-04T06:02:41.545Z,7.90
2023-01-04T06:05:12.593Z,8.57
2023-01-04T06:07:41.969Z,4.27
2023-01-04T06:10:10.663Z,4.40
2023-01-04T06:12:40.469Z,4.13
2023-01-04T06:15:09.272Z,4.43
2023-01-04T06:17:36.356Z,9.37
2023-01-04T06:20:04.839Z,6.87
2023-01-04T06:22:32.785Z,4.80
2023-01-04T06:24:59.511Z,7.27
2023-01-04T06:27:26.104Z,5.87
2023-01-04T06:29:53.160Z,3.93
2023-01-04T06:32:19.699Z,5.97
2023-01-04T06:34:46.218Z,5.20
2023-01-04T06:37:12.887Z,4.83
2023-01-04T06:39:42.391Z,5.03
2023-01-04T06:42:31.678Z,9.50
2023-01-04T06:44:58.286Z,5.77
2023-01-04T06:47:24.829Z,4.53
2023-01-04T06:49:51.609Z,7.10
2023-01-04T06:52:18.127Z,4.83
2023-01-04T06:54:44.680Z,5.63
2023-01-04T06:57:11.193Z,4.43
2023-01-04T06:59:37.701Z,6.00
2023-01-04T07:02:04.423Z,3.87
2023-01-04T07:04:30.978Z,5.40
2023-01-04T07:06:57.964Z,6.03
2023-01-04T07:09:24.584Z,5.17
2023-01-04T07:11:51.105Z,6.63
2023-01-04T07:14:17.669Z,4.53
2023-01-04T07:16:44.271Z,5.63
2023-01-04T07:19:11.257Z,4.40
2023-01-04T07:21:37.773Z,4.47
2023-01-04T07:24:04.358Z,4.30
2023-01-04T07:26:30.841Z,4.67
2023-01-04T07:29:15.673Z,4.13
2023-01-04T07:31:45.644Z,4.20
2023-01-04T07:34:17.252Z,4.37
2023-01-04T07:36:44.212Z,3.40
2023-01-04T07:39:15.589Z,5.90
2023-01-04T07:41:45.436Z,3.03
2023-01-04T07:44:13.087Z,5.73
2023-01-04T07:46:40.364Z,3.80
2023-01-04T07:49:13.069Z,4.30
2023-01-04T07:51:47.071Z,3.83
2023-01-04T07:54:18.057Z,3.70
2023-01-04T07:56:45.954Z,3.23
2023-01-04T07:59:15.500Z,3.37
2023-01-04T08:01:43.322Z,3.40
2023-01-04T08:04:13.167Z,4.23
2023-01-04T08:06:41.619Z,3.67
2023-01-04T08:09:09.191Z,7.87
2023-01-04T08:11:36.156Z,3.87
2023-01-04T08:14:03.472Z,4.43
2023-01-04T08:16:35.702Z,2.23
2023-01-04T08:19:05.598Z,2.87
2023-01-04T08:21:34.819Z,3.37
2023-01-04T08:24:01.573Z,2.80
2023-01-04T08:26:28.736Z,3.30
2023-01-04T08:28:56.502Z,4.60
2023-01-04T08:31:28.531Z,2.83
2023-01-04T08:33:56.552Z,2.30
2023-01-04T08:36:27.602Z,2.97
2023-01-04T08:38:59.850Z,2.50
2023-01-04T08:44:14.002Z,3.30
2023-01-04T08:46:41.263Z,2.87
2023-01-04T08:49:08.083Z,2.77
2023-01-04T08:51:34.934Z,4.83
2023-01-04T08:54:01.549Z,3.70
2023-01-04T08:56:28.016Z,2.97
2023-01-04T08:58:54.580Z,3.80
2023-01-04T09:01:21.190Z,4.37
2023-01-04T09:03:47.801Z,3.43
2023-01-04T09:06:16.029Z,2.43
2023-01-04T09:08:44.378Z,4.37
2023-01-04T09:11:17.234Z,3.27
2023-01-04T09:13:47.302Z,4.73
2023-01-04T09:16:19.844Z,5.53
2023-01-04T09:18:47.212Z,3.40
2023-01-04T09:21:23.048Z,2.07
2023-01-04T09:23:49.614Z,2.67
2023-01-04T09:26:18.951Z,6.23
2023-01-04T09:28:45.755Z,3.07
2023-01-04T09:31:21.079Z,2.87
2023-01-04T09:34:13.300Z,3.87
2023-01-04T09:36:34.221Z,5.13
2023-01-04T09:39:00.743Z,4.77
2023-01-04T09:41:29.569Z,3.17
2023-01-04T09:44:03.666Z,4.33
2023-01-04T09:46:49.896Z,3.83
2023-01-04T09:49:29.008Z,4.97
2023-01-04T09:52:05.389Z,4.23
2023-01-04T09:54:59.121Z,4.90
2023-01-04T09:57:36.630Z,3.28
2023-01-04T10:00:15.217Z,3.40
2023-01-04T10:02:53.032Z,4.97
2023-01-04T10:05:27.311Z,4.20
2023-01-04T10:07:54.110Z,6.40
2023-01-04T10:10:48.914Z,4.03
2023-01-04T10:13:34.345Z,2.90
2023-01-04T10:17:11.316Z,5.07
2023-01-04T10:20:59.686Z,3.40
2023-01-04T10:22:23.915Z,3.85
2023-01-04T10:25:25.863Z,3.88
2023-01-04T10:28:16.292Z,3.10
2023-01-04T10:31:40.149Z,2.80
2023-01-04T10:34:30.220Z,5.50
2023-01-04T10:37:04.859Z,2.67
2023-01-04T10:39:35.868Z,3.17
2023-01-04T10:42:22.242Z,3.72
2023-01-04T10:45:22.420Z,4.35
2023-01-04T10:48:15.411Z,3.75
2023-01-04T10:51:02.119Z,5.45
2023-01-04T10:53:40.665Z,4.70
2023-01-04T10:56:25.677Z,2.25
2023-01-04T10:59:00.420Z,3.25
2023-01-04T11:01:35.079Z,2.53
2023-01-04T11:04:20.270Z,1.67
2023-01-04T11:06:52.940Z,1.75
2023-01-04T11:09:25.794Z,5.18
2023-01-04T11:11:56.424Z,1.30
2023-01-04T11:14:25.556Z,2.67
2023-01-04T11:16:58.459Z,1.95
2023-01-04T11:19:25.158Z,0.85
2023-01-04T11:22:21.206Z,0.70
2023-01-04T11:25:32.952Z,5.75
2023-01-04T11:27:52.729Z,1.92
2023-01-04T11:30:23.757Z,3.40
2023-01-04T11:32:53.254Z,2.42
2023-01-04T11:35:50.606Z,1.98
2023-01-04T11:38:20.274Z,1.20
2023-01-04T11:41:05.764Z,1.48
2023-01-04T11:43:34.821Z,1.15
2023-01-04T11:46:22.173Z,0.88
2023-01-04T11:48:48.941Z,0.85
2023-01-04T11:51:27.531Z,1.35
2023-01-04T11:54:03.380Z,3.58
2023-01-04T11:56:35.427Z,2.75
2023-01-04T11:59:22.872Z,3.72
2023-01-04T12:02:11.007Z,1.42
2023-01-04T12:04:37.700Z,3.08
2023-01-04T12:07:16.465Z,1.23
2023-01-04T12:09:45.866Z,0.88
2023-01-04T12:12:16.056Z,1.02
2023-01-04T12:14:48.666Z,1.58
2023-01-04T12:17:44.989Z,2.00
2023-01-04T12:20:20.291Z,1.88
2023-01-04T12:22:47.314Z,0.95
2023-01-04T12:25:24.031Z,4.05
2023-01-04T12:27:51.865Z,2.88
2023-01-04T12:30:37.056Z,1.98
2023-01-04T12:33:34.319Z,1.63
2023-01-04T12:36:08.057Z,1.40
2023-01-04T12:38:52.850Z,5.78
2023-01-04T12:41:20.844Z,5.90
2023-01-04T12:43:49.925Z,2.15
2023-01-04T12:46:49.991Z,3.55
2023-01-04T12:49:28.500Z,3.53
2023-01-04T12:52:32.416Z,1.63
2023-01-04T12:55:04.810Z,4.65
2023-01-04T12:57:38.468Z,3.50
2023-01-04T13:00:09.976Z,3.00
2023-01-04T13:02:52.355Z,1.48
2023-01-04T13:05:54.982Z,1.98
2023-01-04T13:08:11.983Z,1.85
2023-01-04T13:10:45.862Z,2.90
2023-01-04T13:13:40.054Z,1.10
2023-01-04T13:16:28.720Z,2.33
2023-01-04T13:19:12.397Z,3.58
2023-01-04T13:21:42.285Z,4.05
2023-01-04T13:24:20.842Z,4.05
2023-01-04T13:26:48.444Z,1.67
2023-01-04T13:29:29.338Z,1.65
2023-01-04T13:32:16.271Z,6.05
2023-01-04T13:35:13.953Z,2.92
2023-01-04T13:37:48.286Z,1.77
2023-01-04T13:40:27.186Z,4.70
2023-01-04T13:43:18.540Z,3.00
2023-01-04T13:46:09.855Z,5.55
2023-01-04T13:48:39.161Z,3.30
2023-01-04T13:51:17.698Z,6.60
2023-01-04T13:53:59.074Z,1.42
2023-01-04T13:56:28.560Z,0.98
2023-01-04T13:58:55.372Z,1.60
2023-01-04T14:01:38.622Z,3.08
2023-01-04T14:04:16.391Z,3.25
2023-01-04T14:06:51.260Z,0.80
2023-01-04T14:09:23.146Z,2.85
2023-01-04T14:12:06.179Z,1.25
2023-01-04T14:15:16.693Z,1.33
2023-01-04T14:17:53.158Z,1.45
2023-01-04T14:20:19.614Z,2.05
2023-01-04T14:22:46.644Z,2.17
2023-01-04T14:25:49.555Z,1.40
2023-01-04T14:28:22.545Z,5.60
2023-01-04T14:30:55.430Z,3.88
2023-01-04T14:33:39.337Z,2.63
2023-01-04T14:36:18.509Z,5.88
2023-01-04T14:38:57.021Z,5.03
2023-01-04T14:41:28.758Z,1.88
2023-01-04T14:44:01.128Z,4.40
2023-01-04T14:46:30.198Z,0.90
2023-01-04T14:48:57.361Z,1.05
2023-01-04T14:51:53.104Z,6.43
2023-01-04T14:54:24.908Z,1.55
2023-01-04T14:56:53.339Z,3.45
2023-01-04T14:59:20.111Z,5.63
2023-01-04T15:01:46.940Z,2.30
2023-01-04T15:04:15.777Z,2.60
2023-01-04T15:07:28.286Z,4.18
2023-01-04T15:09:54.825Z,4.05
2023-01-04T15:12:21.365Z,2.90
2023-01-04T15:14:47.881Z,3.90
2023-01-04T15:17:16.760Z,4.00
2023-01-04T15:19:47.569Z,2.35
2023-01-04T15:22:17.759Z,3.75
2023-01-04T15:24:45.580Z,2.38
2023-01-04T15:27:12.083Z,2.35
2023-01-04T15:29:40.924Z,5.55
2023-01-04T15:32:18.553Z,2.38
2023-01-04T15:34:50.349Z,1.13
2023-01-04T15:37:21.919Z,2.75
2023-01-04T15:39:51.527Z,3.83
2023-01-04T15:42:37.975Z,3.88
2023-01-04T15:45:05.421Z,2.03
2023-01-04T15:47:34.478Z,4.05
2023-01-04T15:50:00.973Z,3.20
2023-01-04T15:52:27.495Z,2.65
2023-01-04T15:54:54.059Z,2.33
2023-01-04T15:57:20.550Z,3.00
2023-01-04T15:59:49.904Z,2.67
2023-01-04T16:02:19.418Z,4.03
2023-01-04T16:04:49.602Z,4.43
2023-01-04T16:07:19.204Z,2.22
2023-01-04T16:09:46.969Z,4.25
2023-01-04T16:12:32.006Z,7.78
2023-01-04T16:14:58.511Z,3.08
2023-01-04T16:17:25.333Z,2.88
2023-01-04T16:19:51.835Z,2.58
2023-01-04T16:22:18.375Z,1.90
2023-01-04T16:27:39.001Z,3.75
2023-01-04T16:30:08.611Z,3.42
2023-01-04T16:32:36.385Z,2.03
2023-01-04T16:35:03.826Z,2.88
2023-01-04T16:37:30.725Z,4.55
2023-01-04T16:40:06.299Z,2.38
2023-01-04T16:42:34.304Z,5.18
2023-01-04T16:45:00.922Z,2.53
2023-01-04T16:47:27.505Z,3.03
2023-01-04T16:49:54.404Z,4.85
2023-01-04T16:52:27.174Z,5.72
2023-01-04T16:54:53.787Z,3.92
2023-01-04T16:57:20.287Z,3.38
2023-01-04T16:59:47.827Z,5.18
2023-01-04T17:02:18.734Z,3.47
2023-01-04T17:04:55.050Z,4.18
2023-01-04T17:07:21.716Z,3.58
2023-01-04T17:09:51.033Z,4.45
2023-01-04T17:17:50.819Z,6.75
2023-01-04T17:20:17.365Z,3.30
2023-01-04T17:22:46.079Z,3.20
2023-01-04T17:25:12.665Z,3.67
2023-01-04T17:27:39.245Z,3.45
2023-01-04T17:30:06.681Z,4.30
2023-01-04T17:32:33.202Z,6.18
2023-01-04T17:34:59.701Z,3.50
2023-01-04T17:37:27.063Z,6.00
2023-01-04T17:39:54.559Z,6.15
2023-01-04T17:42:21.351Z,10.57
2023-01-04T17:44:49.445Z,7.38
2023-01-04T17:47:19.390Z,8.38
2023-01-04T17:49:48.979Z,7.53
2023-01-04T17:52:24.340Z,9.65
2023-01-04T17:54:55.446Z,8.40
2023-01-04T17:57:21.932Z,5.88
2023-01-04T17:59:48.506Z,6.47
2023-01-04T18:02:17.654Z,6.15
2023-01-04T18:04:46.258Z,8.27
2023-01-04T18:09:44.916Z,5.63
2023-01-04T18:12:23.130Z,3.45
2023-01-04T18:14:50.219Z,4.85
2023-01-04T18:17:20.437Z,3.47
2023-01-04T18:19:47.767Z,2.67
2023-01-04T18:22:16.472Z,1.33
2023-01-04T18:24:43.307Z,2.17
2023-01-04T18:27:27.701Z,4.20
2023-01-04T18:29:56.550Z,3.47
2023-01-04T18:32:25.392Z,0.98
2023-01-04T18:34:52.168Z,2.17
2023-01-04T18:37:19.282Z,1.65
2023-01-04T18:40:13.669Z,1.70
2023-01-04T18:42:51.799Z,1.40
2023-01-04T18:45:19.399Z,1.55
2023-01-04T18:47:49.286Z,1.20
2023-01-04T18:50:17.886Z,1.35
2023-01-04T18:52:48.495Z,5.25
2023-01-04T18:55:17.215Z,1.75
2023-01-04T18:57:46.444Z,1.00
2023-01-04T19:00:16.545Z,1.00
2023-01-04T19:02:43.354Z,0.50
2023-01-04T19:05:12.315Z,1.15
2023-01-04T19:07:39.473Z,1.38
2023-01-04T19:10:07.556Z,1.38
2023-01-04T19:12:35.580Z,0.90
2023-01-04T19:15:02.298Z,1.02
2023-01-04T19:17:29.084Z,1.23
2023-01-04T19:19:55.864Z,1.10
2023-01-04T19:22:22.717Z,0.50
2023-01-04T19:24:49.527Z,2.28
2023-01-04T19:27:20.625Z,1.15
2023-01-04T19:29:51.236Z,6.03
2023-01-04T19:32:21.177Z,2.63
2023-01-04T19:34:48.612Z,1.88
2023-01-04T19:37:16.148Z,2.08
2023-01-04T19:39:43.368Z,3.38
2023-01-04T19:42:09.911Z,1.95
2023-01-04T19:44:36.473Z,1.23
2023-01-04T19:47:03.125Z,1.90
2023-01-04T19:49:29.729Z,1.50
2023-01-04T19:51:56.239Z,3.67
2023-01-04T19:54:25.529Z,3.22
2023-01-04T19:56:53.114Z,2.88
2023-01-04T19:59:20.044Z,3.50
2023-01-04T20:01:47.917Z,2.45
2023-01-04T20:04:14.553Z,3.05
2023-01-04T20:06:41.224Z,2.85
2023-01-04T20:09:10.201Z,1.55
2023-01-04T20:11:36.833Z,2.45
2023-01-04T20:14:03.629Z,5.30
2023-01-04T20:16:30.198Z,5.93
2023-01-04T20:18:57.951Z,1.42
2023-01-04T20:21:24.701Z,3.53
2023-01-04T20:23:51.249Z,1.75
2023-01-04T20:26:21.304Z,1.58
2023-01-04T20:28:51.937Z,1.95
2023-01-04T20:31:21.385Z,1.88
2023-01-04T20:33:48.901Z,1.52
2023-01-04T20:36:22.193Z,3.47
2023-01-04T20:38:51.888Z,5.38
2023-01-04T20:41:21.239Z,2.22
2023-01-04T20:43:49.101Z,2.53
2023-01-04T20:46:19.018Z,2.30
2023-01-04T20:48:47.814Z,3.50
2023-01-04T20:51:18.518Z,4.03
2023-01-04T20:53:45.268Z,3.90
2023-01-04T20:56:23.484Z,1.90
2023-01-04T20:58:50.735Z,3.50
2023-01-04T21:01:22.357Z,3.05
2023-01-04T21:03:49.579Z,4.95
2023-01-04T21:06:23.116Z,2.58
2023-01-04T21:08:54.779Z,1.88
2023-01-04T21:11:21.617Z,1.35
2023-01-04T21:13:50.313Z,2.63
2023-01-04T21:16:19.899Z,2.90
2023-01-04T21:18:48.791Z,3.17
2023-01-04T21:21:20.352Z,3.08
2023-01-04T21:23:57.597Z,2.03
2023-01-04T21:26:24.796Z,1.80
2023-01-04T21:28:51.664Z,2.15
2023-01-04T21:31:22.553Z,1.45
2023-01-04T21:33:53.604Z,2.40
2023-01-04T21:36:25.541Z,1.35
2023-01-04T21:38:54.074Z,1.45
2023-01-04T21:41:24.983Z,1.77
2023-01-04T21:43:53.781Z,2.28
2023-01-04T21:46:23.969Z,1.70
2023-01-04T21:48:55.261Z,2.35
2023-01-04T21:51:22.119Z,1.92
2023-01-04T21:53:50.612Z,4.68
2023-01-04T21:56:20.368Z,3.72
2023-01-04T21:58:46.910Z,5.85
2023-01-04T22:01:16.324Z,5.38
2023-01-04T22:03:43.526Z,2.97
2023-01-04T22:06:12.784Z,3.72
2023-01-04T22:08:40.615Z,3.30
2023-01-04T22:11:08.062Z,3.25
2023-01-04T22:13:35.180Z,5.32
2023-01-04T22:16:11.110Z,4.78
2023-01-04T22:18:38.052Z,8.32
2023-01-04T22:21:07.623Z,16.48
2023-01-04T22:23:34.657Z,20.35
2023-01-04T22:26:01.747Z,7.65
2023-01-04T22:28:34.644Z,4.05
2023-01-04T22:31:06.951Z,2.92
2023-01-04T22:33:38.132Z,3.63
2023-01-04T22:36:15.416Z,5.00
2023-01-04T22:38:46.514Z,5.45
2023-01-04T22:41:16.256Z,5.57
2023-01-04T22:43:43.829Z,6.03
2023-01-04T22:46:17.301Z,4.65
2023-01-04T22:48:44.754Z,5.70
2023-01-04T22:51:14.591Z,3.53
2023-01-04T22:53:41.128Z,4.97
2023-01-04T22:56:21.826Z,3.38
2023-01-04T22:58:53.390Z,3.65
2023-01-04T23:01:23.424Z,4.82
2023-01-04T23:03:54.078Z,2.97
2023-01-04T23:06:21.674Z,4.22
2023-01-04T23:08:48.784Z,2.80
2023-01-04T23:11:17.656Z,2.95
2023-01-04T23:13:44.852Z,2.50
2023-01-04T23:16:14.160Z,4.35
2023-01-04T23:18:40.818Z,3.22
2023-01-04T23:21:07.688Z,3.17
2023-01-04T23:23:34.690Z,5.13
2023-01-04T23:26:10.701Z,2.35
2023-01-04T23:28:37.297Z,3.47
2023-01-04T23:31:06.394Z,4.60
2023-01-04T23:33:36.291Z,2.92
2023-01-04T23:36:16.166Z,3.30
2023-01-04T23:38:44.046Z,2.72
2023-01-04T23:41:11.545Z,4.07
2023-01-04T23:43:38.853Z,4.70
2023-01-04T23:46:16.825Z,2.72
2023-01-04T23:48:43.927Z,5.10
2023-01-04T23:51:13.086Z,3.05
2023-01-04T23:53:39.688Z,2.53
2023-01-04T23:56:11.999Z,2.45
2023-01-04T23:58:38.492Z,3.55
